sensor_id;sensor_type;location;lat;lon;timestamp;P1;durP1;ratioP1;P2;durP2;ratioP2
13520;SDS011;6832;51.186;3.236;2022-09-29T05:23:52;8.03;;;3.33;;
13520;SDS011;6832;51.186;3.236;2022-09-29T05:26:21;6.67;;;3.37;;
13520;SDS011;6832;51.186;3.236;2022-09-29T05:28:50;7.23;;;3.20;;
13520;SDS011;6832;51.186;3.236;2022-09-29T05:31:18;8.57;;;3.40;;
13520;SDS011;6832;51.186;3.236;2022-09-29T05:33:45;15.03;;;5.40;;
13520;SDS011;6832;51.186;3.236;2022-09-29T05:36:12;7.07;;;3.43;;
13520;SDS011;6832;51.186;3.236;2022-09-29T05:38:40;8.77;;;4.00;;
13520;SDS011;6832;51.186;3.236;2022-09-29T05:41:10;14.50;;;5.67;;
13520;SDS011;6832;51.186;3.236;2022-09-29T05:43:38;11.37;;;4.60;;
13520;SDS011;6832;51.186;3.236;2022-09-29T05:46:06;8.33;;;3.80;;
13520;SDS011;6832;51.186;3.236;2022-09-29T05:48:34;5.40;;;3.10;;
13520;SDS011;6832;51.186;3.236;2022-09-29T05:51:05;8.60;;;3.67;;
13520;SDS011;6832;51.186;3.236;2022-09-29T05:53:40;7.83;;;3.70;;
13520;SDS011;6832;51.186;3.236;2022-09-29T05:56:12;14.23;;;4.80;;
13520;SDS011;6832;51.186;3.236;2022-09-29T05:58:47;9.23;;;4.00;;
13520;SDS011;6832;51.186;3.236;2022-09-29T06:01:15;11.93;;;4.77;;
13520;SDS011;6832;51.186;3.236;2022-09-29T06:03:45;7.50;;;3.63;;
13520;SDS011;6832;51.186;3.236;2022-09-29T06:06:14;8.87;;;3.73;;
13520;SDS011;6832;51.186;3.236;2022-09-29T06:08:43;10.93;;;4.43;;
13520;SDS011;6832;51.186;3.236;2022-09-29T06:11:13;7.37;;;3.67;;
13520;SDS011;6832;51.186;3.236;2022-09-29T06:13:58;6.03;;;3.13;;
13520;SDS011;6832;51.186;3.236;2022-09-29T06:16:27;6.50;;;3.40;;
13520;SDS011;6832;51.186;3.236;2022-09-29T06:18:58;8.03;;;3.67;;
13520;SDS011;6832;51.186;3.236;2022-09-29T06:21:26;8.90;;;3.93;;
13520;SDS011;6832;51.186;3.236;2022-09-29T06:23:56;7.67;;;3.37;;
13520;SDS011;6832;51.186;3.236;2022-09-29T06:26:26;8.97;;;4.00;;
13520;SDS011;6832;51.186;3.236;2022-09-29T06:28:55;6.00;;;3.13;;
13520;SDS011;6832;51.186;3.236;2022-09-29T06:31:23;9.73;;;4.30;;
13520;SDS011;6832;51.186;3.236;2022-09-29T06:33:52;9.07;;;3.90;;
13520;SDS011;6832;51.186;3.236;2022-09-29T06:36:24;6.97;;;3.53;;
13520;SDS011;6832;51.186;3.236;2022-09-29T06:39:12;8.70;;;3.83;;
13520;SDS011;6832;51.186;3.236;2022-09-29T06:41:43;7.33;;;3.67;;
13520;SDS011;6832;51.186;3.236;2022-09-29T06:44:17;9.40;;;3.80;;
13520;SDS011;6832;51.186;3.236;2022-09-29T06:46:45;6.80;;;3.80;;
13520;SDS011;6832;51.186;3.236;2022-09-29T06:49:18;6.97;;;3.30;;
13520;SDS011;6832;51.186;3.236;2022-09-29T06:51:46;7.20;;;3.50;;
13520;SDS011;6832;51.186;3.236;2022-09-29T06:54:14;7.67;;;3.33;;
13520;SDS011;6832;51.186;3.236;2022-09-29T06:56:47;13.37;;;4.33;;
13520;SDS011;6832;51.186;3.236;2022-09-29T06:59:18;7.63;;;3.63;;
13520;SDS011;6832;51.186;3.236;2022-09-29T07:04:17;6.77;;;3.80;;
13520;SDS011;6832;51.186;3.236;2022-09-29T07:06:46;6.47;;;3.73;;
13520;SDS011;6832;51.186;3.236;2022-09-29T07:11:49;8.57;;;3.27;;
13520;SDS011;6832;51.186;3.236;2022-09-29T07:14:17;10.07;;;4.57;;
13520;SDS011;6832;51.186;3.236;2022-09-29T07:16:47;16.87;;;5.20;;
13520;SDS011;6832;51.186;3.236;2022-09-29T07:19:17;13.67;;;4.73;;
13520;SDS011;6832;51.186;3.236;2022-09-29T07:21:52;4.10;;;2.67;;
13520;SDS011;6832;51.186;3.236;2022-09-29T07:24:20;7.47;;;3.50;;
13520;SDS011;6832;51.186;3.236;2022-09-29T07:26:51;5.30;;;2.70;;
13520;SDS011;6832;51.186;3.236;2022-09-29T07:29:24;12.23;;;4.23;;
13520;SDS011;6832;51.186;3.236;2022-09-29T07:34:28;7.70;;;3.37;;
13520;SDS011;6832;51.186;3.236;2022-09-29T07:36:58;9.73;;;3.83;;
13520;SDS011;6832;51.186;3.236;2022-09-29T07:39:25;14.00;;;5.03;;
13520;SDS011;6832;51.186;3.236;2022-09-29T07:41:54;10.53;;;4.23;;
13520;SDS011;6832;51.186;3.236;2022-09-29T07:44:22;11.27;;;4.43;;
13520;SDS011;6832;51.186;3.236;2022-09-29T07:46:51;9.43;;;3.77;;
13520;SDS011;6832;51.186;3.236;2022-09-29T07:49:18;19.37;;;6.40;;
13520;SDS011;6832;51.186;3.236;2022-09-29T07:51:45;8.27;;;3.40;;
13520;SDS011;6832;51.186;3.236;2022-09-29T07:54:34;7.87;;;3.90;;
13520;SDS011;6832;51.186;3.236;2022-09-29T07:57:08;8.70;;;3.60;;
13520;SDS011;6832;51.186;3.236;2022-09-29T07:59:37;5.37;;;2.90;;
13520;SDS011;6832;51.186;3.236;2022-09-29T08:04:35;6.77;;;3.00;;
13520;SDS011;6832;51.186;3.236;2022-09-29T08:07:11;8.30;;;3.67;;
13520;SDS011;6832;51.186;3.236;2022-09-29T08:09:39;4.73;;;2.70;;
13520;SDS011;6832;51.186;3.236;2022-09-29T08:17:10;5.73;;;3.00;;
13520;SDS011;6832;51.186;3.236;2022-09-29T08:19:43;6.67;;;2.93;;
13520;SDS011;6832;51.186;3.236;2022-09-29T08:22:11;8.07;;;3.20;;
13520;SDS011;6832;51.186;3.236;2022-09-29T08:27:24;10.77;;;4.30;;
13520;SDS011;6832;51.186;3.236;2022-09-29T08:29:55;5.73;;;3.17;;
13520;SDS011;6832;51.186;3.236;2022-09-29T08:32:23;7.57;;;3.50;;
13520;SDS011;6832;51.186;3.236;2022-09-29T08:34:50;6.17;;;3.57;;
13520;SDS011;6832;51.186;3.236;2022-09-29T08:37:20;6.83;;;3.33;;
13520;SDS011;6832;51.186;3.236;2022-09-29T08:39:53;5.37;;;2.93;;
13520;SDS011;6832;51.186;3.236;2022-09-29T08:42:24;5.63;;;3.20;;
13520;SDS011;6832;51.186;3.236;2022-09-29T08:44:55;6.87;;;3.30;;
13520;SDS011;6832;51.186;3.236;2022-09-29T08:47:29;5.97;;;2.80;;
13520;SDS011;6832;51.186;3.236;2022-09-29T08:50:03;5.70;;;3.07;;
13520;SDS011;6832;51.186;3.236;2022-09-29T08:52:37;7.90;;;3.40;;
13520;SDS011;6832;51.186;3.236;2022-09-29T08:55:50;10.50;;;4.20;;
13520;SDS011;6832;51.186;3.236;2022-09-29T08:58:23;8.03;;;3.77;;
13520;SDS011;6832;51.186;3.236;2022-09-29T09:00:58;6.27;;;3.47;;
13520;SDS011;6832;51.186;3.236;2022-09-29T09:10:33;4.83;;;3.07;;
13520;SDS011;6832;51.186;3.236;2022-09-29T09:15:34;8.63;;;3.23;;
13520;SDS011;6832;51.186;3.236;2022-09-29T09:18:20;7.47;;;3.33;;
13520;SDS011;6832;51.186;3.236;2022-09-29T09:21:13;5.60;;;2.67;;
13520;SDS011;6832;51.186;3.236;2022-09-29T09:23:50;7.53;;;2.93;;
13520;SDS011;6832;51.186;3.236;2022-09-29T09:26:20;4.70;;;2.27;;
13520;SDS011;6832;51.186;3.236;2022-09-29T09:28:54;5.93;;;2.77;;
13520;SDS011;6832;51.186;3.236;2022-09-29T09:31:28;6.30;;;2.60;;
13520;SDS011;6832;51.186;3.236;2022-09-29T09:34:01;8.67;;;2.80;;
13520;SDS011;6832;51.186;3.236;2022-09-29T09:36:41;12.03;;;4.27;;
13520;SDS011;6832;51.186;3.236;2022-09-29T09:39:24;5.60;;;2.47;;
13520;SDS011;6832;51.186;3.236;2022-09-29T09:42:05;6.80;;;2.60;;
13520;SDS011;6832;51.186;3.236;2022-09-29T09:44:43;2.47;;;1.37;;
13520;SDS011;6832;51.186;3.236;2022-09-29T09:47:25;3.90;;;1.60;;
13520;SDS011;6832;51.186;3.236;2022-09-29T09:51:17;6.50;;;1.97;;
13520;SDS011;6832;51.186;3.236;2022-09-29T09:53:08;8.40;;;2.80;;
13520;SDS011;6832;51.186;3.236;2022-09-29T09:55:40;4.53;;;1.60;;
13520;SDS011;6832;51.186;3.236;2022-09-29T10:01:15;12.07;;;2.63;;
13520;SDS011;6832;51.186;3.236;2022-09-29T10:03:45;4.60;;;1.77;;
13520;SDS011;6832;51.186;3.236;2022-09-29T10:06:14;3.97;;;1.50;;
13520;SDS011;6832;51.186;3.236;2022-09-29T10:08:41;6.33;;;2.30;;
13520;SDS011;6832;51.186;3.236;2022-09-29T10:11:18;4.50;;;1.27;;
13520;SDS011;6832;51.186;3.236;2022-09-29T10:13:54;4.57;;;2.00;;
13520;SDS011;6832;51.186;3.236;2022-09-29T10:16:33;6.67;;;2.00;;
13520;SDS011;6832;51.186;3.236;2022-09-29T10:19:10;6.83;;;2.30;;
13520;SDS011;6832;51.186;3.236;2022-09-29T10:21:39;4.40;;;1.63;;
13520;SDS011;6832;51.186;3.236;2022-09-29T10:27:42;3.07;;;1.27;;
13520;SDS011;6832;51.186;3.236;2022-09-29T10:30:17;7.23;;;2.10;;
13520;SDS011;6832;51.186;3.236;2022-09-29T10:32:47;8.10;;;3.00;;
13520;SDS011;6832;51.186;3.236;2022-09-29T10:38:26;3.70;;;1.47;;
13520;SDS011;6832;51.186;3.236;2022-09-29T10:40:56;5.10;;;1.10;;
13520;SDS011;6832;51.186;3.236;2022-09-29T10:43:27;6.00;;;2.30;;
13520;SDS011;6832;51.186;3.236;2022-09-29T10:46:03;9.80;;;2.93;;
13520;SDS011;6832;51.186;3.236;2022-09-29T10:48:32;7.40;;;2.77;;
13520;SDS011;6832;51.186;3.236;2022-09-29T10:51:22;6.87;;;3.00;;
13520;SDS011;6832;51.186;3.236;2022-09-29T10:54:08;11.23;;;4.03;;
13520;SDS011;6832;51.186;3.236;2022-09-29T10:56:37;8.17;;;3.10;;
13520;SDS011;6832;51.186;3.236;2022-09-29T10:59:14;10.70;;;3.83;;
13520;SDS011;6832;51.186;3.236;2022-09-29T11:01:45;8.13;;;3.17;;
13520;SDS011;6832;51.186;3.236;2022-09-29T11:04:22;7.07;;;2.70;;
13520;SDS011;6832;51.186;3.236;2022-09-29T11:06:51;7.43;;;3.00;;
13520;SDS011;6832;51.186;3.236;2022-09-29T11:09:29;10.23;;;3.10;;
13520;SDS011;6832;51.186;3.236;2022-09-29T11:12:01;10.70;;;3.57;;
13520;SDS011;6832;51.186;3.236;2022-09-29T11:14:29;7.60;;;2.80;;
13520;SDS011;6832;51.186;3.236;2022-09-29T11:16:58;10.03;;;3.63;;
13520;SDS011;6832;51.186;3.236;2022-09-29T11:19:31;8.83;;;3.10;;
13520;SDS011;6832;51.186;3.236;2022-09-29T11:25:04;4.53;;;1.60;;
13520;SDS011;6832;51.186;3.236;2022-09-29T11:28:02;8.47;;;2.97;;
13520;SDS011;6832;51.186;3.236;2022-09-29T11:30:43;5.47;;;2.03;;
13520;SDS011;6832;51.186;3.236;2022-09-29T11:33:22;5.53;;;2.13;;
13520;SDS011;6832;51.186;3.236;2022-09-29T11:35:57;7.50;;;2.90;;
13520;SDS011;6832;51.186;3.236;2022-09-29T11:39:00;6.03;;;2.30;;
13520;SDS011;6832;51.186;3.236;2022-09-29T11:41:46;5.50;;;2.10;;
13520;SDS011;6832;51.186;3.236;2022-09-29T11:44:38;8.87;;;3.10;;
13520;SDS011;6832;51.186;3.236;2022-09-29T11:47:38;8.43;;;2.87;;
13520;SDS011;6832;51.186;3.236;2022-09-29T11:50:34;6.80;;;2.50;;
13520;SDS011;6832;51.186;3.236;2022-09-29T11:53:22;9.37;;;2.87;;
13520;SDS011;6832;51.186;3.236;2022-09-29T11:56:18;5.60;;;2.23;;
13520;SDS011;6832;51.186;3.236;2022-09-29T11:59:13;4.23;;;1.77;;
13520;SDS011;6832;51.186;3.236;2022-09-29T12:08:12;4.57;;;1.80;;
13520;SDS011;6832;51.186;3.236;2022-09-29T12:10:49;4.03;;;1.80;;
13520;SDS011;6832;51.186;3.236;2022-09-29T12:13:24;3.73;;;1.70;;
13520;SDS011;6832;51.186;3.236;2022-09-29T12:16:06;4.73;;;2.03;;
13520;SDS011;6832;51.186;3.236;2022-09-29T12:18:39;4.97;;;1.93;;
13520;SDS011;6832;51.186;3.236;2022-09-29T12:21:11;8.30;;;2.83;;
13520;SDS011;6832;51.186;3.236;2022-09-29T12:23:47;4.97;;;1.77;;
13520;SDS011;6832;51.186;3.236;2022-09-29T12:26:36;6.27;;;1.60;;
13520;SDS011;6832;51.186;3.236;2022-09-29T12:29:25;14.00;;;3.83;;
13520;SDS011;6832;51.186;3.236;2022-09-29T12:32:02;4.67;;;1.80;;
13520;SDS011;6832;51.186;3.236;2022-09-29T12:37:59;4.73;;;1.90;;
13520;SDS011;6832;51.186;3.236;2022-09-29T12:41:04;7.77;;;2.33;;
13520;SDS011;6832;51.186;3.236;2022-09-29T12:43:47;8.17;;;2.93;;
13520;SDS011;6832;51.186;3.236;2022-09-29T12:46:31;8.57;;;3.23;;
13520;SDS011;6832;51.186;3.236;2022-09-29T12:49:13;5.67;;;1.97;;
13520;SDS011;6832;51.186;3.236;2022-09-29T12:54:59;7.37;;;2.37;;
13520;SDS011;6832;51.186;3.236;2022-09-29T12:57:34;5.30;;;1.90;;
13520;SDS011;6832;51.186;3.236;2022-09-29T13:00:06;10.50;;;3.10;;
13520;SDS011;6832;51.186;3.236;2022-09-29T13:02:46;5.60;;;1.93;;
13520;SDS011;6832;51.186;3.236;2022-09-29T13:12:26;2.03;;;0.93;;
13520;SDS011;6832;51.186;3.236;2022-09-29T13:15:47;4.07;;;1.80;;
13520;SDS011;6832;51.186;3.236;2022-09-29T13:18:47;4.57;;;1.83;;
13520;SDS011;6832;51.186;3.236;2022-09-29T13:22:59;10.20;;;3.80;;
13520;SDS011;6832;51.186;3.236;2022-09-29T13:28:02;3.83;;;1.30;;
13520;SDS011;6832;51.186;3.236;2022-09-29T13:30:42;3.10;;;1.27;;
13520;SDS011;6832;51.186;3.236;2022-09-29T13:37:13;4.37;;;1.30;;
13520;SDS011;6832;51.186;3.236;2022-09-29T13:40:25;3.67;;;1.53;;
13520;SDS011;6832;51.186;3.236;2022-09-29T13:44:00;6.63;;;2.47;;
13520;SDS011;6832;51.186;3.236;2022-09-29T13:46:39;3.10;;;1.27;;
13520;SDS011;6832;51.186;3.236;2022-09-29T13:49:24;3.23;;;1.53;;
13520;SDS011;6832;51.186;3.236;2022-09-29T13:52:28;4.23;;;1.73;;
13520;SDS011;6832;51.186;3.236;2022-09-29T13:55:04;4.63;;;2.20;;
13520;SDS011;6832;51.186;3.236;2022-09-29T13:58:19;4.47;;;1.63;;
13520;SDS011;6832;51.186;3.236;2022-09-29T14:00:52;4.00;;;1.77;;
13520;SDS011;6832;51.186;3.236;2022-09-29T14:03:25;2.73;;;1.37;;
13520;SDS011;6832;51.186;3.236;2022-09-29T14:09:00;4.90;;;1.90;;
13520;SDS011;6832;51.186;3.236;2022-09-29T14:14:57;4.27;;;1.63;;
13520;SDS011;6832;51.186;3.236;2022-09-29T14:17:30;2.73;;;1.13;;
13520;SDS011;6832;51.186;3.236;2022-09-29T14:20:03;2.40;;;1.23;;
13520;SDS011;6832;51.186;3.236;2022-09-29T14:22:54;3.80;;;1.67;;
13520;SDS011;6832;51.186;3.236;2022-09-29T14:28:26;2.90;;;1.43;;
13520;SDS011;6832;51.186;3.236;2022-09-29T14:31:01;6.10;;;2.40;;
13520;SDS011;6832;51.186;3.236;2022-09-29T14:33:39;1.23;;;0.90;;
13520;SDS011;6832;51.186;3.236;2022-09-29T14:36:10;4.87;;;1.57;;
13520;SDS011;6832;51.186;3.236;2022-09-29T14:41:47;3.90;;;1.53;;
13520;SDS011;6832;51.186;3.236;2022-09-29T14:44:19;6.33;;;2.37;;
13520;SDS011;6832;51.186;3.236;2022-09-29T14:47:13;4.40;;;1.87;;
13520;SDS011;6832;51.186;3.236;2022-09-29T14:50:33;5.00;;;1.80;;
13520;SDS011;6832;51.186;3.236;2022-09-29T14:53:44;8.50;;;2.73;;
13520;SDS011;6832;51.186;3.236;2022-09-29T14:56:30;6.07;;;1.97;;
13520;SDS011;6832;51.186;3.236;2022-09-29T14:59:20;6.90;;;2.37;;
13520;SDS011;6832;51.186;3.236;2022-09-29T15:04:57;2.90;;;1.40;;
13520;SDS011;6832;51.186;3.236;2022-09-29T15:07:26;2.33;;;1.13;;
13520;SDS011;6832;51.186;3.236;2022-09-29T15:10:13;5.80;;;2.20;;
13520;SDS011;6832;51.186;3.236;2022-09-29T15:13:22;6.23;;;2.27;;
13520;SDS011;6832;51.186;3.236;2022-09-29T15:15:54;6.43;;;2.63;;
13520;SDS011;6832;51.186;3.236;2022-09-29T15:18:33;3.83;;;1.60;;
13520;SDS011;6832;51.186;3.236;2022-09-29T15:21:31;5.67;;;2.43;;
13520;SDS011;6832;51.186;3.236;2022-09-29T15:24:13;6.83;;;2.30;;
13520;SDS011;6832;51.186;3.236;2022-09-29T15:26:59;7.20;;;3.17;;
13520;SDS011;6832;51.186;3.236;2022-09-29T15:29:28;7.60;;;3.50;;
13520;SDS011;6832;51.186;3.236;2022-09-29T15:31:57;2.10;;;1.43;;
13520;SDS011;6832;51.186;3.236;2022-09-29T15:34:37;5.67;;;2.03;;
13520;SDS011;6832;51.186;3.236;2022-09-29T15:37:13;8.17;;;3.53;;
13520;SDS011;6832;51.186;3.236;2022-09-29T15:39:46;2.93;;;1.50;;
13520;SDS011;6832;51.186;3.236;2022-09-29T15:42:18;6.97;;;2.87;;
13520;SDS011;6832;51.186;3.236;2022-09-29T15:44:52;5.73;;;1.90;;
13520;SDS011;6832;51.186;3.236;2022-09-29T15:47:39;4.93;;;1.90;;
13520;SDS011;6832;51.186;3.236;2022-09-29T15:50:26;6.23;;;1.60;;
13520;SDS011;6832;51.186;3.236;2022-09-29T15:52:58;4.80;;;1.73;;
13520;SDS011;6832;51.186;3.236;2022-09-29T15:55:34;4.30;;;1.70;;
13520;SDS011;6832;51.186;3.236;2022-09-29T15:58:05;3.23;;;1.60;;
13520;SDS011;6832;51.186;3.236;2022-09-29T16:01:09;4.23;;;1.77;;
13520;SDS011;6832;51.186;3.236;2022-09-29T16:03:44;4.03;;;1.77;;
13520;SDS011;6832;51.186;3.236;2022-09-29T16:06:24;7.63;;;2.67;;
13520;SDS011;6832;51.186;3.236;2022-09-29T16:08:55;8.83;;;3.57;;
13520;SDS011;6832;51.186;3.236;2022-09-29T16:11:30;5.93;;;2.73;;
13520;SDS011;6832;51.186;3.236;2022-09-29T16:14:06;8.20;;;2.87;;
13520;SDS011;6832;51.186;3.236;2022-09-29T16:16:39;2.83;;;1.70;;
13520;SDS011;6832;51.186;3.236;2022-09-29T16:19:12;5.70;;;1.97;;
13520;SDS011;6832;51.186;3.236;2022-09-29T16:21:48;3.20;;;1.47;;
13520;SDS011;6832;51.186;3.236;2022-09-29T16:24:26;4.57;;;1.40;;
13520;SDS011;6832;51.186;3.236;2022-09-29T16:27:03;3.57;;;1.57;;
13520;SDS011;6832;51.186;3.236;2022-09-29T16:29:34;5.47;;;2.17;;
13520;SDS011;6832;51.186;3.236;2022-09-29T16:38:29;2.40;;;1.37;;
13520;SDS011;6832;51.186;3.236;2022-09-29T16:41:06;6.43;;;2.43;;
13520;SDS011;6832;51.186;3.236;2022-09-29T16:43:38;4.27;;;1.87;;
13520;SDS011;6832;51.186;3.236;2022-09-29T16:46:12;5.67;;;2.47;;
13520;SDS011;6832;51.186;3.236;2022-09-29T16:51:22;5.93;;;2.40;;
13520;SDS011;6832;51.186;3.236;2022-09-29T16:53:49;3.83;;;1.63;;
13520;SDS011;6832;51.186;3.236;2022-09-29T16:56:36;8.73;;;3.23;;
13520;SDS011;6832;51.186;3.236;2022-09-29T17:02:15;16.67;;;3.37;;
13520;SDS011;6832;51.186;3.236;2022-09-29T17:04:48;6.83;;;3.07;;
13520;SDS011;6832;51.186;3.236;2022-09-29T17:07:20;8.80;;;3.00;;
13520;SDS011;6832;51.186;3.236;2022-09-29T17:09:50;3.43;;;2.10;;
13520;SDS011;6832;51.186;3.236;2022-09-29T17:12:28;9.50;;;3.60;;
13520;SDS011;6832;51.186;3.236;2022-09-29T17:15:16;9.77;;;3.93;;
13520;SDS011;6832;51.186;3.236;2022-09-29T17:17:48;8.40;;;3.03;;
13520;SDS011;6832;51.186;3.236;2022-09-29T17:20:20;3.13;;;2.17;;
13520;SDS011;6832;51.186;3.236;2022-09-29T17:22:56;9.17;;;3.77;;
13520;SDS011;6832;51.186;3.236;2022-09-29T17:29:37;10.23;;;4.70;;
13520;SDS011;6832;51.186;3.236;2022-09-29T17:32:26;6.27;;;3.80;;
13520;SDS011;6832;51.186;3.236;2022-09-29T17:35:45;7.23;;;2.50;;
13520;SDS011;6832;51.186;3.236;2022-09-29T17:38:19;9.57;;;4.53;;
13520;SDS011;6832;51.186;3.236;2022-09-29T17:40:55;5.17;;;2.87;;
13520;SDS011;6832;51.186;3.236;2022-09-29T17:43:43;6.33;;;2.80;;
